Terminal Aerodrome Forecast
Issued by NWS

Home | Current Version | Previous Version | Text Only | Print | Product List | Glossary On
Versions: 1 2 3 4 5 6 7 8 9 10 11 12 13 14 15 16 17 18 19 20 21 22 23 24 25 26 27 28 29
080
FTUS43 KLSX 091436 AAA
TAFUIN
TAF AMD
KUIN 091436Z 0915/1012 32018G26KT 5SM -SN OVC025
      TEMPO 0915/0917 2SM -SN BKN019
     FM091900 31018KT P6SM OVC035
     FM100000 31015KT P6SM BKN050
     FM100600 32015KT P6SM BKN250=

USA.gov is the U.S. government's official web portal to all federal, state and local government web resources and services.